Time;durP1;ratioP1;P1;durP2;ratioP2;P2;SDS_P1;SDS_P2;PMS_P1;PMS_P2;Temp;Humidity;BMP_temperature;BMP_pressure;BME280_temperature;BME280_humidity;BME280_pressure;Samples;Min_cycle;Max_cycle;Signal;HPM_P1;HPM_P2
2022/04/14 00:33:43;;;;;;;5.63;3.42;;;;;;;;;;5176218;22;20493;-78
2022/04/14 00:36:09;;;;;;;7.95;4.32;;;;;;;;;;5059275;28;20112;-79
2022/04/14 00:38:35;;;;;;;6.88;3.88;;;;;;;;;;5051961;28;20035;-78
2022/04/14 00:41:02;;;;;;;25.35;14.25;;;;;;;;;;5070374;28;20025;-79
2022/04/14 00:43:31;;;;;;;9.18;4.90;;;;;;;;;;5069930;28;20021;-75
2022/04/14 00:46:01;;;;;;;8.77;4.80;;;;;;;;;;5067703;28;20020;-73
2022/04/14 00:48:28;;;;;;;7.10;4.03;;;;;;;;;;5050640;28;20159;-74
2022/04/14 00:50:54;;;;;;;7.95;3.97;;;;;;;;;;5052193;28;20030;-73
2022/04/14 00:53:21;;;;;;;10.73;4.47;;;;;;;;;;5051087;28;20024;-71
2022/04/14 00:55:47;;;;;;;6.40;4.35;;;;;;;;;;5051964;28;20021;-70
2022/04/14 00:58:13;;;;;;;11.48;6.10;;;;;;;;;;5034486;28;20085;-74
2022/04/14 01:00:39;;;;;;;11.07;7.00;;;;;;;;;;5049697;28;20033;-77
2022/04/14 01:03:06;;;;;;;7.85;4.85;;;;;;;;;;5051055;28;20030;-76
2022/04/14 01:05:33;;;;;;;6.25;4.55;;;;;;;;;;5048712;28;20036;-75
2022/04/14 01:07:59;;;;;;;6.43;4.50;;;;;;;;;;5041686;28;20030;-77
2022/04/14 01:10:26;;;;;;;7.00;4.10;;;;;;;;;;5069233;28;20032;-78
2022/04/14 01:12:53;;;;;;;5.90;4.18;;;;;;;;;;5068058;28;20017;-76
2022/04/14 01:15:19;;;;;;;6.68;3.50;;;;;;;;;;5071461;28;20025;-78
2022/04/14 01:17:45;;;;;;;6.22;3.88;;;;;;;;;;5055970;28;20025;-72
2022/04/14 01:20:13;;;;;;;7.00;4.80;;;;;;;;;;5054193;28;20002;-78
2022/04/14 01:22:56;;;;;;;18.05;7.32;;;;;;;;;;5035210;28;20616;-75
2022/04/14 01:25:23;;;;;;;12.25;7.45;;;;;;;;;;5052439;28;20021;-75
2022/04/14 01:27:50;;;;;;;11.05;7.18;;;;;;;;;;5052649;28;20420;-76
2022/04/14 01:30:18;;;;;;;10.48;7.05;;;;;;;;;;5069875;28;20044;-76
2022/04/14 01:32:44;;;;;;;11.70;6.50;;;;;;;;;;5073995;28;20020;-74
2022/04/14 01:35:10;;;;;;;10.82;6.78;;;;;;;;;;5076403;28;20075;-76
2022/04/14 01:37:36;;;;;;;14.05;8.52;;;;;;;;;;5073209;28;20029;-71
2022/04/14 01:40:03;;;;;;;13.57;8.85;;;;;;;;;;5062355;28;20026;-71
2022/04/14 01:42:29;;;;;;;13.80;8.68;;;;;;;;;;5054874;28;20029;-74
2022/04/14 01:44:56;;;;;;;13.75;8.38;;;;;;;;;;5057028;28;20087;-77
2022/04/14 01:47:22;;;;;;;10.73;7.00;;;;;;;;;;5057401;28;20025;-76
2022/04/14 01:49:48;;;;;;;10.93;6.22;;;;;;;;;;5053807;28;20026;-73
2022/04/14 01:52:14;;;;;;;11.63;5.75;;;;;;;;;;5069342;28;20032;-76
2022/04/14 01:54:40;;;;;;;8.10;4.40;;;;;;;;;;5078291;28;20077;-74
2022/04/14 01:57:06;;;;;;;5.50;3.50;;;;;;;;;;5076809;28;20482;-78
2022/04/14 01:59:34;;;;;;;6.53;3.40;;;;;;;;;;5076962;28;20485;-76
2022/04/14 02:02:01;;;;;;;5.82;3.20;;;;;;;;;;5071021;28;20092;-70
2022/04/14 02:04:29;;;;;;;6.90;3.20;;;;;;;;;;5070288;28;20027;-75
2022/04/14 02:06:55;;;;;;;9.38;3.50;;;;;;;;;;5072200;28;20039;-72
2022/04/14 02:09:21;;;;;;;5.05;3.30;;;;;;;;;;5073482;28;20063;-70
2022/04/14 02:11:47;;;;;;;5.50;3.25;;;;;;;;;;5071832;28;20020;-71
2022/04/14 02:14:13;;;;;;;4.20;3.10;;;;;;;;;;5070133;28;20087;-71
2022/04/14 02:16:39;;;;;;;6.53;3.38;;;;;;;;;;5055097;28;20026;-74
2022/04/14 02:19:06;;;;;;;6.18;3.30;;;;;;;;;;5055450;28;20025;-73
2022/04/14 02:21:34;;;;;;;4.03;3.17;;;;;;;;;;5055620;28;20025;-75
2022/04/14 02:24:04;;;;;;;4.88;3.30;;;;;;;;;;5074645;28;20032;-76
2022/04/14 02:26:30;;;;;;;5.22;3.55;;;;;;;;;;5034940;28;20026;-77
2022/04/14 02:28:57;;;;;;;6.22;3.42;;;;;;;;;;5051922;28;20050;-78
2022/04/14 02:31:23;;;;;;;5.20;3.50;;;;;;;;;;5039384;28;20053;-78
2022/04/14 02:33:49;;;;;;;7.60;3.60;;;;;;;;;;5066026;28;20093;-78
2022/04/14 02:36:16;;;;;;;5.97;3.35;;;;;;;;;;5052924;28;20038;-74
2022/04/14 02:38:45;;;;;;;5.50;3.15;;;;;;;;;;5037903;28;20057;-78
2022/04/14 02:41:11;;;;;;;4.68;3.28;;;;;;;;;;5037811;28;20030;-71
2022/04/14 02:43:40;;;;;;;11.52;3.80;;;;;;;;;;5050434;28;20013;-78
2022/04/14 02:46:06;;;;;;;6.07;3.22;;;;;;;;;;5070438;28;20048;-71
2022/04/14 02:48:32;;;;;;;5.18;3.30;;;;;;;;;;5058281;28;20077;-73
2022/04/14 02:50:58;;;;;;;6.03;3.60;;;;;;;;;;5058713;28;20029;-72
2022/04/14 02:53:25;;;;;;;5.32;3.92;;;;;;;;;;5058689;28;20025;-78
2022/04/14 02:55:51;;;;;;;8.02;5.25;;;;;;;;;;5075822;28;20073;-72
2022/04/14 02:58:19;;;;;;;11.32;6.78;;;;;;;;;;5042248;28;20026;-78
2022/04/14 03:00:45;;;;;;;7.45;4.95;;;;;;;;;;5041790;28;20112;-77
2022/04/14 03:03:15;;;;;;;10.63;5.15;;;;;;;;;;5056676;28;20098;-70
2022/04/14 03:05:41;;;;;;;6.13;4.18;;;;;;;;;;5069463;28;20037;-78
2022/04/14 03:08:07;;;;;;;8.18;4.60;;;;;;;;;;5066924;28;20060;-77
2022/04/14 03:10:35;;;;;;;7.15;4.30;;;;;;;;;;5040699;28;20041;-74
2022/04/14 03:13:01;;;;;;;6.18;3.60;;;;;;;;;;5057045;28;20009;-76
2022/04/14 03:15:27;;;;;;;4.43;3.03;;;;;;;;;;5057395;28;20084;-77
2022/04/14 03:17:56;;;;;;;7.05;3.30;;;;;;;;;;5053740;28;20108;-71
2022/04/14 03:20:23;;;;;;;5.57;3.22;;;;;;;;;;5045523;28;20065;-71
2022/04/14 03:22:49;;;;;;;7.00;3.40;;;;;;;;;;5037626;28;20058;-72
2022/04/14 03:25:15;;;;;;;9.88;4.15;;;;;;;;;;5037055;28;20037;-78
2022/04/14 03:27:41;;;;;;;6.57;4.35;;;;;;;;;;5070770;28;20015;-77
2022/04/14 03:30:11;;;;;;;8.15;4.72;;;;;;;;;;5045895;28;20133;-70
2022/04/14 03:32:40;;;;;;;7.47;4.72;;;;;;;;;;5034540;28;20028;-74
2022/04/14 03:35:07;;;;;;;6.75;4.68;;;;;;;;;;5038238;28;20053;-76
2022/04/14 03:37:34;;;;;;;6.03;4.00;;;;;;;;;;5041124;28;20025;-78
2022/04/14 03:40:00;;;;;;;6.75;3.80;;;;;;;;;;5057370;28;20025;-72
2022/04/14 03:42:26;;;;;;;5.95;3.95;;;;;;;;;;5054137;28;20013;-75
2022/04/14 03:44:53;;;;;;;4.88;3.63;;;;;;;;;;5051909;28;20498;-73
2022/04/14 03:47:19;;;;;;;6.82;3.03;;;;;;;;;;5041533;28;20057;-75
2022/04/14 03:49:47;;;;;;;7.72;3.65;;;;;;;;;;5049336;28;20372;-70
2022/04/14 03:52:13;;;;;;;6.30;3.33;;;;;;;;;;5050271;28;20143;-74
2022/04/14 03:54:39;;;;;;;5.05;3.42;;;;;;;;;;5051738;28;20026;-73
2022/04/14 03:57:05;;;;;;;7.65;3.20;;;;;;;;;;5049732;28;20012;-73
2022/04/14 03:59:31;;;;;;;7.05;3.38;;;;;;;;;;5051707;28;20036;-72
2022/04/14 04:01:58;;;;;;;6.47;3.40;;;;;;;;;;5034797;28;20026;-77
2022/04/14 04:04:24;;;;;;;5.68;3.40;;;;;;;;;;5030913;28;20018;-76
2022/04/14 04:06:50;;;;;;;5.35;3.45;;;;;;;;;;5029455;28;20048;-77
2022/04/14 04:09:16;;;;;;;3.85;2.95;;;;;;;;;;5041818;28;20027;-77
2022/04/14 04:11:42;;;;;;;5.28;3.45;;;;;;;;;;5053716;28;20026;-77
2022/04/14 04:14:08;;;;;;;13.82;3.85;;;;;;;;;;5054182;28;20021;-75
2022/04/14 04:16:34;;;;;;;6.20;3.25;;;;;;;;;;5052527;28;20045;-70
2022/04/14 04:19:00;;;;;;;4.10;2.95;;;;;;;;;;5038031;28;20014;-75
2022/04/14 04:21:29;;;;;;;7.53;3.45;;;;;;;;;;5054391;28;20014;-74
2022/04/14 04:23:57;;;;;;;10.93;6.57;;;;;;;;;;5047956;28;20033;-74
2022/04/14 04:26:23;;;;;;;7.63;4.20;;;;;;;;;;5044711;28;20124;-76
2022/04/14 04:28:49;;;;;;;16.13;4.03;;;;;;;;;;5045609;28;20022;-77
2022/04/14 04:31:15;;;;;;;7.07;3.80;;;;;;;;;;5051274;28;20368;-77
2022/04/14 04:45:39;;;;;;;9.55;4.43;;;;;;;;;;5103680;27;20394;-70
2022/04/14 04:48:05;;;;;;;17.58;4.90;;;;;;;;;;5095785;28;20048;-68
2022/04/14 04:50:32;;;;;;;15.65;4.78;;;;;;;;;;5097764;28;20508;-77
2022/04/14 04:52:58;;;;;;;21.85;8.13;;;;;;;;;;5098013;28;20103;-79
2022/04/14 04:55:24;;;;;;;16.17;6.63;;;;;;;;;;5088111;28;20036;-72
2022/04/14 04:57:50;;;;;;;15.98;9.05;;;;;;;;;;5094356;28;20063;-79
2022/04/14 05:00:16;;;;;;;22.58;6.28;;;;;;;;;;5083727;28;20029;-70
2022/04/14 05:02:42;;;;;;;15.77;6.95;;;;;;;;;;5077720;28;20066;-69
2022/04/14 05:05:08;;;;;;;24.52;11.63;;;;;;;;;;5087633;28;20027;-72
2022/04/14 05:07:34;;;;;;;29.77;15.82;;;;;;;;;;5089013;28;20029;-75
2022/04/14 05:10:00;;;;;;;35.17;15.48;;;;;;;;;;5093579;28;20031;-83
2022/04/14 05:12:26;;;;;;;28.33;11.52;;;;;;;;;;5086157;28;20024;-87
2022/04/14 05:14:53;;;;;;;30.75;10.63;;;;;;;;;;5082823;28;20068;-69
2022/04/14 05:17:19;;;;;;;12.88;5.93;;;;;;;;;;5087425;28;20070;-81
2022/04/14 05:19:45;;;;;;;29.85;6.97;;;;;;;;;;5087056;28;20107;-77
2022/04/14 05:22:11;;;;;;;33.55;8.95;;;;;;;;;;5085502;28;20028;-73
2022/04/14 05:24:37;;;;;;;20.75;8.48;;;;;;;;;;5083500;28;20020;-78
2022/04/14 05:27:03;;;;;;;19.88;9.43;;;;;;;;;;5088226;28;20027;-88
2022/04/14 05:29:30;;;;;;;25.30;7.95;;;;;;;;;;5085822;28;20021;-85
2022/04/14 05:31:57;;;;;;;11.85;5.68;;;;;;;;;;5087177;28;20024;-91
2022/04/14 05:34:23;;;;;;;15.35;5.63;;;;;;;;;;5090355;28;20036;-73
2022/04/14 05:36:50;;;;;;;15.82;5.93;;;;;;;;;;5087716;28;20470;-77
2022/04/14 05:39:16;;;;;;;16.20;5.88;;;;;;;;;;5080194;28;20039;-76
2022/04/14 05:41:42;;;;;;;12.10;5.70;;;;;;;;;;5074196;28;20017;-72
2022/04/14 05:44:08;;;;;;;16.90;6.28;;;;;;;;;;5072090;28;20048;-77
2022/04/14 05:46:34;;;;;;;14.27;7.40;;;;;;;;;;5061120;28;20017;-74
2022/04/14 05:49:00;;;;;;;23.73;8.73;;;;;;;;;;5061506;28;20116;-72
2022/04/14 05:51:26;;;;;;;16.50;8.23;;;;;;;;;;5067021;28;20027;-76
2022/04/14 05:53:53;;;;;;;16.67;8.30;;;;;;;;;;5069409;28;20036;-71
2022/04/14 05:56:19;;;;;;;20.23;7.57;;;;;;;;;;5073602;28;20540;-78
2022/04/14 05:58:45;;;;;;;15.52;6.32;;;;;;;;;;5069431;28;20061;-73
2022/04/14 06:01:12;;;;;;;16.30;7.28;;;;;;;;;;5068672;28;20017;-79
2022/04/14 06:03:38;;;;;;;21.35;8.00;;;;;;;;;;5067342;28;20086;-73
2022/04/14 06:06:05;;;;;;;21.33;7.70;;;;;;;;;;5062879;28;20092;-85
2022/04/14 06:08:31;;;;;;;24.85;7.85;;;;;;;;;;5065493;28;20033;-79
2022/04/14 06:10:57;;;;;;;25.52;8.75;;;;;;;;;;5062854;28;20379;-82
2022/04/14 06:13:23;;;;;;;27.90;6.70;;;;;;;;;;5065663;28;20036;-83
2022/04/14 06:15:49;;;;;;;15.35;6.50;;;;;;;;;;5066255;28;20033;-82
2022/04/14 06:18:15;;;;;;;15.98;6.57;;;;;;;;;;5070901;28;20033;-76
2022/04/14 06:20:41;;;;;;;15.10;7.20;;;;;;;;;;5069182;28;20466;-78
2022/04/14 06:23:10;;;;;;;12.95;5.88;;;;;;;;;;5068391;28;20064;-84
2022/04/14 06:25:36;;;;;;;14.68;6.10;;;;;;;;;;5067699;28;20513;-82
2022/04/14 06:28:03;;;;;;;16.67;6.13;;;;;;;;;;5066501;28;20478;-81
2022/04/14 06:30:29;;;;;;;16.92;6.50;;;;;;;;;;5062924;28;20041;-77
2022/04/14 06:32:56;;;;;;;10.68;5.18;;;;;;;;;;5072199;28;20036;-77
2022/04/14 06:35:22;;;;;;;16.55;6.25;;;;;;;;;;5059708;28;20036;-81
2022/04/14 06:37:48;;;;;;;15.32;6.30;;;;;;;;;;5073141;28;20028;-80
2022/04/14 06:40:14;;;;;;;15.40;6.18;;;;;;;;;;5069122;28;20048;-79
2022/04/14 06:42:40;;;;;;;19.33;7.18;;;;;;;;;;5064669;28;20032;-75
2022/04/14 06:45:07;;;;;;;22.75;6.70;;;;;;;;;;5060801;28;20056;-83
2022/04/14 06:47:33;;;;;;;14.35;6.53;;;;;;;;;;5061013;28;20482;-83
2022/04/14 06:49:59;;;;;;;20.70;6.50;;;;;;;;;;5068106;28;20031;-79
2022/04/14 06:52:25;;;;;;;21.05;8.02;;;;;;;;;;5062139;28;20029;-78
2022/04/14 06:54:51;;;;;;;22.25;8.68;;;;;;;;;;5070442;28;20483;-83
2022/04/14 06:57:19;;;;;;;21.45;8.25;;;;;;;;;;5071472;28;20107;-76
2022/04/14 06:59:45;;;;;;;17.30;8.23;;;;;;;;;;5069866;28;20033;-84
2022/04/14 07:02:11;;;;;;;18.40;8.45;;;;;;;;;;5052776;28;20037;-78
2022/04/14 07:04:37;;;;;;;20.65;9.13;;;;;;;;;;5062854;28;20044;-78
2022/04/14 07:07:03;;;;;;;16.88;8.77;;;;;;;;;;5066205;28;20077;-74
2022/04/14 07:09:33;;;;;;;17.80;8.98;;;;;;;;;;5065130;28;20097;-75
2022/04/14 07:12:00;;;;;;;22.65;10.60;;;;;;;;;;5071544;28;20381;-75
2022/04/14 07:14:28;;;;;;;16.95;10.20;;;;;;;;;;5071199;28;20037;-77
2022/04/14 07:16:54;;;;;;;22.23;9.25;;;;;;;;;;5066423;28;20024;-76
2022/04/14 07:19:20;;;;;;;15.05;9.55;;;;;;;;;;5062434;28;20028;-75
2022/04/14 07:21:46;;;;;;;13.40;8.70;;;;;;;;;;5072148;28;20020;-74
2022/04/14 07:24:13;;;;;;;17.88;9.07;;;;;;;;;;5073599;28;20036;-75
2022/04/14 07:26:39;;;;;;;17.90;7.10;;;;;;;;;;5067130;28;20021;-74
2022/04/14 07:29:05;;;;;;;26.58;9.35;;;;;;;;;;5063438;28;20031;-78
2022/04/14 07:31:32;;;;;;;15.02;8.43;;;;;;;;;;5068069;28;20470;-78
2022/04/14 07:34:01;;;;;;;16.42;8.27;;;;;;;;;;5070971;28;20114;-77
2022/04/14 07:36:27;;;;;;;14.93;8.70;;;;;;;;;;5066833;28;20023;-77
2022/04/14 07:38:53;;;;;;;13.55;7.15;;;;;;;;;;5063999;28;20055;-78
2022/04/14 07:41:19;;;;;;;36.42;10.27;;;;;;;;;;5061919;28;20032;-78
2022/04/14 07:43:45;;;;;;;18.13;7.60;;;;;;;;;;5066755;28;20048;-78
2022/04/14 07:46:11;;;;;;;16.00;7.80;;;;;;;;;;5063636;28;20024;-82
2022/04/14 07:48:37;;;;;;;19.17;7.15;;;;;;;;;;5063994;28;20031;-75
2022/04/14 07:51:04;;;;;;;15.13;7.10;;;;;;;;;;5055540;28;20024;-76
2022/04/14 07:53:30;;;;;;;10.55;6.93;;;;;;;;;;5059790;28;20029;-76
2022/04/14 07:55:56;;;;;;;11.65;5.90;;;;;;;;;;5068459;28;20024;-76
2022/04/14 07:58:22;;;;;;;13.27;5.90;;;;;;;;;;5068681;28;20098;-76
2022/04/14 08:00:52;;;;;;;13.73;5.88;;;;;;;;;;5065337;28;20036;-77
2022/04/14 08:03:18;;;;;;;11.55;6.18;;;;;;;;;;5058832;28;20033;-75
2022/04/14 08:05:45;;;;;;;8.85;5.03;;;;;;;;;;5064422;28;20019;-77
2022/04/14 08:08:11;;;;;;;9.93;6.13;;;;;;;;;;5064879;28;20020;-74
2022/04/14 08:10:37;;;;;;;13.35;5.43;;;;;;;;;;5063980;28;20017;-73
2022/04/14 08:13:04;;;;;;;11.45;5.10;;;;;;;;;;5065996;28;20052;-76
2022/04/14 08:15:31;;;;;;;11.07;4.90;;;;;;;;;;5060247;28;20043;-77
2022/04/14 08:17:57;;;;;;;7.60;4.20;;;;;;;;;;5070829;28;20024;-79
2022/04/14 08:20:24;;;;;;;13.32;5.40;;;;;;;;;;5062544;28;20029;-74
2022/04/14 08:22:50;;;;;;;7.93;5.55;;;;;;;;;;5062384;28;20033;-75
2022/04/14 08:25:17;;;;;;;13.30;6.07;;;;;;;;;;5061570;28;20016;-73
2022/04/14 08:27:43;;;;;;;9.98;5.97;;;;;;;;;;5052639;28;20398;-75
2022/04/14 08:30:10;;;;;;;10.15;5.88;;;;;;;;;;5053108;28;20021;-74
2022/04/14 08:32:36;;;;;;;12.00;6.05;;;;;;;;;;5053609;28;20094;-74
2022/04/14 08:35:03;;;;;;;11.00;5.78;;;;;;;;;;5070027;28;20123;-74
2022/04/14 08:37:29;;;;;;;8.55;5.85;;;;;;;;;;5072734;28;20021;-73
2022/04/14 08:39:57;;;;;;;15.27;6.60;;;;;;;;;;5073039;28;20056;-74
2022/04/14 08:42:26;;;;;;;14.18;5.88;;;;;;;;;;5061092;28;20059;-74
2022/04/14 08:44:55;;;;;;;18.13;5.63;;;;;;;;;;5071007;28;20498;-72
2022/04/14 08:47:21;;;;;;;8.07;5.13;;;;;;;;;;5072901;28;20025;-74
2022/04/14 08:49:48;;;;;;;10.65;5.20;;;;;;;;;;5071525;28;20044;-74
2022/04/14 08:52:15;;;;;;;7.22;4.60;;;;;;;;;;5069335;28;20025;-73
2022/04/14 08:54:46;;;;;;;8.68;4.40;;;;;;;;;;5063678;28;20045;-74
2022/04/14 08:57:13;;;;;;;6.93;4.80;;;;;;;;;;5072824;28;20077;-74
2022/04/14 08:59:40;;;;;;;11.10;5.80;;;;;;;;;;5070000;28;20028;-73
2022/04/14 09:02:13;;;;;;;12.40;6.20;;;;;;;;;;5053653;28;20482;-74
2022/04/14 09:04:41;;;;;;;11.13;6.22;;;;;;;;;;5057118;28;20049;-74
2022/04/14 09:07:07;;;;;;;13.50;5.35;;;;;;;;;;5072641;28;20017;-74
2022/04/14 09:09:33;;;;;;;7.07;5.32;;;;;;;;;;5069093;28;20028;-74
2022/04/14 09:11:59;;;;;;;7.53;6.00;;;;;;;;;;5056680;28;20033;-74
2022/04/14 09:14:26;;;;;;;7.53;5.90;;;;;;;;;;5051083;28;20403;-74
2022/04/14 09:16:53;;;;;;;8.52;5.50;;;;;;;;;;5053391;28;20075;-74
2022/04/14 09:19:20;;;;;;;9.10;5.30;;;;;;;;;;5052616;28;20044;-74
2022/04/14 09:21:59;;;;;;;9.40;4.95;;;;;;;;;;5060509;28;20013;-75
2022/04/14 09:24:41;;;;;;;7.55;4.47;;;;;;;;;;5072956;28;20067;-74
2022/04/14 09:27:08;;;;;;;7.13;4.60;;;;;;;;;;5061975;28;20104;-75
2022/04/14 09:29:34;;;;;;;12.48;4.88;;;;;;;;;;5055925;28;20071;-74
2022/04/14 09:32:00;;;;;;;6.55;4.68;;;;;;;;;;5057166;28;20028;-73
2022/04/14 09:34:45;;;;;;;10.98;5.28;;;;;;;;;;5055819;28;20041;-74
2022/04/14 09:37:12;;;;;;;10.63;4.65;;;;;;;;;;5062508;28;20024;-74
2022/04/14 09:40:16;;;;;;;9.77;4.72;;;;;;;;;;5075720;28;20034;-72
2022/04/14 09:42:48;;;;;;;11.02;5.65;;;;;;;;;;4991849;28;20034;-74
2022/04/14 09:45:25;;;;;;;8.90;5.70;;;;;;;;;;4994359;28;20073;-74
2022/04/14 09:47:52;;;;;;;11.88;5.65;;;;;;;;;;4986114;28;20063;-74
2022/04/14 09:50:26;;;;;;;7.03;5.30;;;;;;;;;;4958761;28;20516;-74
2022/04/14 09:53:14;;;;;;;14.60;6.70;;;;;;;;;;4975683;28;20030;-74
2022/04/14 09:55:41;;;;;;;12.75;5.65;;;;;;;;;;4965598;28;20516;-74
2022/04/14 09:58:10;;;;;;;10.43;5.15;;;;;;;;;;4974247;28;20038;-73
2022/04/14 10:00:56;;;;;;;10.20;5.38;;;;;;;;;;4993652;28;20034;-74
2022/04/14 10:03:22;;;;;;;8.95;5.32;;;;;;;;;;4977665;28;20508;-74
2022/04/14 10:05:50;;;;;;;10.88;5.72;;;;;;;;;;4986836;28;20038;-74
2022/04/14 10:08:16;;;;;;;9.45;6.20;;;;;;;;;;4974522;28;20033;-74
2022/04/14 10:10:47;;;;;;;9.20;5.55;;;;;;;;;;4974607;28;20023;-75
2022/04/14 10:13:17;;;;;;;10.85;6.25;;;;;;;;;;5006170;28;20053;-73
2022/04/14 10:15:45;;;;;;;9.80;6.20;;;;;;;;;;5054731;28;20039;-74
2022/04/14 10:18:15;;;;;;;11.68;5.90;;;;;;;;;;5065424;28;20104;-83
2022/04/14 10:20:43;;;;;;;7.90;6.07;;;;;;;;;;5062941;28;20052;-78
2022/04/14 10:23:10;;;;;;;10.40;5.97;;;;;;;;;;5065444;28;20024;-76
2022/04/14 10:25:37;;;;;;;11.10;5.57;;;;;;;;;;5065867;28;20028;-80
2022/04/14 10:28:05;;;;;;;11.77;6.15;;;;;;;;;;5063541;28;20032;-76
2022/04/14 10:30:31;;;;;;;9.50;6.43;;;;;;;;;;5057291;28;20037;-77
2022/04/14 10:32:58;;;;;;;17.55;6.50;;;;;;;;;;5059308;28;20021;-73
2022/04/14 10:35:25;;;;;;;9.25;5.72;;;;;;;;;;5071852;28;20036;-85
2022/04/14 10:37:57;;;;;;;13.02;6.25;;;;;;;;;;5066970;28;20017;-81
2022/04/14 10:40:23;;;;;;;9.48;5.90;;;;;;;;;;5064328;28;20118;-81
2022/04/14 10:42:51;;;;;;;9.63;6.07;;;;;;;;;;5061425;28;20028;-79
2022/04/14 10:45:19;;;;;;;12.48;6.32;;;;;;;;;;5067285;28;20040;-73
2022/04/14 10:47:50;;;;;;;11.05;6.35;;;;;;;;;;5069182;28;20437;-75
2022/04/14 10:50:21;;;;;;;10.05;6.15;;;;;;;;;;5066264;28;20107;-74
2022/04/14 10:53:02;;;;;;;8.65;6.43;;;;;;;;;;5073942;28;20055;-76
2022/04/14 10:55:36;;;;;;;15.55;6.75;;;;;;;;;;5057433;28;20029;-75
2022/04/14 10:58:02;;;;;;;10.70;6.63;;;;;;;;;;5059086;28;20171;-71
2022/04/14 11:00:38;;;;;;;10.35;6.70;;;;;;;;;;5066039;28;20028;-77
2022/04/14 11:03:08;;;;;;;12.15;6.95;;;;;;;;;;5063664;28;20406;-74
2022/04/14 11:05:42;;;;;;;9.57;6.25;;;;;;;;;;5062509;28;20024;-76
2022/04/14 11:08:21;;;;;;;10.48;6.40;;;;;;;;;;5059742;28;20483;-76
2022/04/14 11:10:54;;;;;;;9.48;6.22;;;;;;;;;;5058426;28;20031;-76
2022/04/14 11:13:20;;;;;;;11.98;6.38;;;;;;;;;;5055786;28;20466;-76
2022/04/14 11:15:48;;;;;;;8.35;6.20;;;;;;;;;;5061220;28;20041;-79
2022/04/14 11:18:16;;;;;;;12.10;6.20;;;;;;;;;;5070501;28;20139;-75
2022/04/14 11:20:48;;;;;;;17.55;6.70;;;;;;;;;;5061207;28;20029;-74
2022/04/14 11:23:20;;;;;;;10.75;6.60;;;;;;;;;;5071606;28;20436;-73
2022/04/14 11:25:47;;;;;;;16.05;6.72;;;;;;;;;;5068084;28;20044;-75
2022/04/14 11:28:20;;;;;;;9.38;6.40;;;;;;;;;;5063291;28;20024;-74
2022/04/14 11:30:47;;;;;;;11.50;6.47;;;;;;;;;;5066853;28;20027;-75
2022/04/14 11:33:14;;;;;;;10.63;6.53;;;;;;;;;;5073004;28;20044;-72
2022/04/14 11:35:47;;;;;;;14.02;6.55;;;;;;;;;;5073153;28;20055;-72
2022/04/14 11:38:32;;;;;;;10.60;6.60;;;;;;;;;;5068135;28;20136;-79
2022/04/14 11:40:58;;;;;;;14.35;6.18;;;;;;;;;;5070710;28;20025;-77
2022/04/14 11:43:24;;;;;;;9.77;6.03;;;;;;;;;;5063706;28;20037;-76
2022/04/14 11:45:51;;;;;;;9.32;6.63;;;;;;;;;;5061028;28;20059;-75
2022/04/14 11:48:17;;;;;;;11.90;6.45;;;;;;;;;;5056048;28;20029;-79
2022/04/14 11:50:43;;;;;;;8.57;5.78;;;;;;;;;;5061707;28;20029;-83
2022/04/14 11:53:09;;;;;;;10.05;6.15;;;;;;;;;;5068477;28;20127;-77
2022/04/14 11:55:35;;;;;;;41.05;8.30;;;;;;;;;;5072504;28;20442;-75
2022/04/14 11:58:11;;;;;;;10.77;6.47;;;;;;;;;;5059937;28;20124;-79
2022/04/14 12:00:47;;;;;;;8.45;5.93;;;;;;;;;;5062892;28;20108;-80
2022/04/14 12:03:13;;;;;;;11.13;7.05;;;;;;;;;;5056212;28;20025;-75
2022/04/14 12:05:43;;;;;;;24.55;6.65;;;;;;;;;;5066417;28;20040;-72
2022/04/14 12:08:09;;;;;;;9.00;6.35;;;;;;;;;;5078769;28;20493;-73
2022/04/14 12:10:36;;;;;;;9.73;6.25;;;;;;;;;;5071454;28;20026;-75
2022/04/14 12:13:09;;;;;;;11.68;6.60;;;;;;;;;;5067354;28;20056;-78
2022/04/14 12:15:36;;;;;;;12.13;5.80;;;;;;;;;;5063214;28;20044;-73
2022/04/14 12:18:12;;;;;;;10.95;6.55;;;;;;;;;;5065391;28;20482;-71
2022/04/14 12:20:48;;;;;;;10.20;6.13;;;;;;;;;;5072637;28;20020;-75
2022/04/14 12:23:14;;;;;;;8.55;5.80;;;;;;;;;;5062651;28;20082;-72
2022/04/14 12:25:41;;;;;;;10.45;6.38;;;;;;;;;;5061647;28;20107;-77
2022/04/14 12:28:07;;;;;;;8.95;5.97;;;;;;;;;;5072461;28;20536;-71
2022/04/14 12:30:36;;;;;;;16.95;7.07;;;;;;;;;;5072449;28;20020;-76
2022/04/14 12:33:06;;;;;;;10.85;6.30;;;;;;;;;;5069903;28;20020;-77
2022/04/14 12:35:33;;;;;;;11.70;6.18;;;;;;;;;;5068921;28;20062;-79
2022/04/14 12:38:11;;;;;;;9.65;6.63;;;;;;;;;;5060844;28;20021;-72
2022/04/14 12:40:37;;;;;;;11.80;5.93;;;;;;;;;;5072206;28;20074;-75
2022/04/14 12:43:06;;;;;;;9.20;6.03;;;;;;;;;;5071137;28;20051;-73
2022/04/14 12:45:39;;;;;;;9.75;6.32;;;;;;;;;;5069207;28;20047;-78
2022/04/14 12:48:05;;;;;;;9.23;6.40;;;;;;;;;;5063425;28;20025;-71
2022/04/14 12:50:31;;;;;;;9.60;6.10;;;;;;;;;;5061422;28;20258;-77
2022/04/14 12:52:59;;;;;;;12.38;6.47;;;;;;;;;;5072102;28;20021;-72
2022/04/14 12:55:26;;;;;;;17.02;7.05;;;;;;;;;;5062694;28;20032;-76
2022/04/14 12:58:07;;;;;;;10.55;6.47;;;;;;;;;;5072505;28;20027;-72
2022/04/14 13:00:33;;;;;;;8.18;6.13;;;;;;;;;;5076256;28;20078;-77
2022/04/14 13:03:13;;;;;;;10.27;6.03;;;;;;;;;;5068147;28;20025;-75
2022/04/14 13:05:40;;;;;;;27.33;7.72;;;;;;;;;;5073615;28;20557;-75
2022/04/14 13:08:06;;;;;;;12.60;6.90;;;;;;;;;;5075034;28;20035;-76
2022/04/14 13:10:38;;;;;;;9.90;5.93;;;;;;;;;;5071923;28;20079;-80
2022/04/14 13:13:05;;;;;;;11.50;6.43;;;;;;;;;;5074199;28;20390;-72
2022/04/14 13:15:31;;;;;;;16.58;6.28;;;;;;;;;;5066677;28;20043;-78
2022/04/14 13:17:58;;;;;;;8.57;5.72;;;;;;;;;;5065373;28;20096;-76
2022/04/14 13:20:43;;;;;;;23.95;6.50;;;;;;;;;;5075053;28;20505;-76
2022/04/14 13:23:09;;;;;;;9.85;5.88;;;;;;;;;;5072975;28;20021;-77
2022/04/14 13:25:38;;;;;;;10.07;6.35;;;;;;;;;;5066457;28;20103;-76
2022/04/14 13:28:04;;;;;;;9.48;6.15;;;;;;;;;;5069496;28;20124;-76
2022/04/14 13:30:30;;;;;;;12.73;6.22;;;;;;;;;;5064613;28;20025;-78
2022/04/14 13:32:57;;;;;;;10.38;6.38;;;;;;;;;;5068646;28;20525;-82
2022/04/14 13:35:23;;;;;;;12.25;6.18;;;;;;;;;;5065433;28;20043;-79
2022/04/14 13:37:51;;;;;;;10.57;6.35;;;;;;;;;;5070277;28;20078;-76
2022/04/14 13:40:17;;;;;;;15.18;6.32;;;;;;;;;;5068379;28;20501;-73
2022/04/14 13:42:45;;;;;;;12.73;7.07;;;;;;;;;;5069893;28;20028;-74
2022/04/14 13:45:12;;;;;;;12.07;6.55;;;;;;;;;;5068245;28;20060;-76
2022/04/14 13:47:39;;;;;;;11.65;6.32;;;;;;;;;;5068553;28;20496;-74
2022/04/14 13:50:07;;;;;;;10.18;6.45;;;;;;;;;;5070813;28;20032;-75
2022/04/14 13:52:33;;;;;;;24.20;6.53;;;;;;;;;;5074194;28;20021;-74
2022/04/14 13:55:00;;;;;;;20.40;6.63;;;;;;;;;;5074352;28;20024;-76
2022/04/14 13:57:26;;;;;;;12.60;5.85;;;;;;;;;;5070554;28;20017;-74
2022/04/14 13:59:52;;;;;;;14.73;6.10;;;;;;;;;;5073771;28;20024;-72
2022/04/14 14:02:18;;;;;;;12.20;6.40;;;;;;;;;;5073760;28;20474;-70
2022/04/14 14:04:44;;;;;;;15.00;6.60;;;;;;;;;;5073296;28;20029;-79
2022/04/14 14:07:10;;;;;;;12.57;5.85;;;;;;;;;;5073163;28;20024;-77
2022/04/14 14:09:36;;;;;;;11.93;5.90;;;;;;;;;;5069032;28;20024;-74
2022/04/14 14:12:03;;;;;;;10.68;6.00;;;;;;;;;;5071626;28;20470;-74
2022/04/14 14:14:29;;;;;;;32.47;7.82;;;;;;;;;;5062347;28;20447;-74
2022/04/14 14:16:55;;;;;;;12.88;5.90;;;;;;;;;;5074247;28;20027;-69
2022/04/14 14:19:21;;;;;;;17.23;6.10;;;;;;;;;;5067028;28;20035;-87
2022/04/14 14:21:49;;;;;;;10.70;5.88;;;;;;;;;;5070514;28;20062;-71
2022/04/14 14:24:15;;;;;;;10.18;5.57;;;;;;;;;;5065090;28;20056;-76
2022/04/14 14:26:41;;;;;;;16.00;6.28;;;;;;;;;;5071642;28;20103;-73
2022/04/14 14:29:07;;;;;;;12.10;5.55;;;;;;;;;;5070579;28;20449;-76
2022/04/14 14:31:33;;;;;;;29.00;6.25;;;;;;;;;;5067809;28;20021;-68
2022/04/14 14:33:59;;;;;;;18.52;5.60;;;;;;;;;;5067800;28;20103;-72
2022/04/14 14:36:25;;;;;;;7.07;4.35;;;;;;;;;;5066311;28;20032;-69
2022/04/14 14:38:52;;;;;;;8.10;4.85;;;;;;;;;;5074212;28;20457;-75
2022/04/14 14:41:18;;;;;;;7.22;4.82;;;;;;;;;;5071506;28;20032;-70
2022/04/14 14:43:44;;;;;;;8.32;5.03;;;;;;;;;;5068911;28;20036;-79
2022/04/14 14:46:10;;;;;;;14.43;5.93;;;;;;;;;;5064907;28;20078;-76
2022/04/14 14:48:37;;;;;;;8.02;5.35;;;;;;;;;;5066373;28;20494;-80
2022/04/14 14:51:04;;;;;;;14.43;5.10;;;;;;;;;;5071502;28;20793;-74
2022/04/14 14:53:30;;;;;;;12.60;5.63;;;;;;;;;;5071143;28;20371;-72
2022/04/14 14:55:56;;;;;;;11.43;5.47;;;;;;;;;;5070591;28;20082;-70
2022/04/14 15:01:09;;;;;;;12.35;5.68;;;;;;;;;;5068874;28;20047;-74
2022/04/14 15:03:36;;;;;;;10.75;5.47;;;;;;;;;;5062453;28;20071;-71
2022/04/14 15:06:03;;;;;;;7.57;5.40;;;;;;;;;;5062556;28;20025;-70
2022/04/14 15:08:29;;;;;;;9.73;5.60;;;;;;;;;;5069565;28;20036;-71
2022/04/14 15:10:55;;;;;;;10.85;5.57;;;;;;;;;;5069290;28;20374;-77
2022/04/14 15:13:21;;;;;;;10.35;5.57;;;;;;;;;;5071811;28;20052;-71
2022/04/14 15:15:49;;;;;;;15.50;6.45;;;;;;;;;;5073552;28;20028;-75
2022/04/14 15:18:15;;;;;;;14.15;5.88;;;;;;;;;;5069432;28;20052;-72
2022/04/14 15:20:41;;;;;;;12.23;5.93;;;;;;;;;;5073623;28;20051;-76
2022/04/14 15:23:08;;;;;;;10.73;5.00;;;;;;;;;;5071978;28;20566;-79